Time;durP1;ratioP1;P1;durP2;ratioP2;P2;SDS_P1;SDS_P2;PMS_P1;PMS_P2;Temp;Humidity;BMP_temperature;BMP_pressure;BME280_temperature;BME280_humidity;BME280_pressure;Samples;Min_cycle;Max_cycle;Signal;HPM_P1;HPM_P2
2023/03/15 00:00:43;;;;;;;0.10;0.10;;;;;;;16.70;49.68;101013.22;2101328;28;20048;-56
2023/03/15 00:01:46;;;;;;;0.05;0.05;;;;;;;16.71;49.73;101017.50;2092767;28;20080;-56
2023/03/15 00:02:48;;;;;;;0.10;0.10;;;;;;;16.70;49.60;101021.41;2094571;28;20056;-57
2023/03/15 00:03:51;;;;;;;0.10;0.10;;;;;;;16.70;49.68;101018.66;2100668;28;20584;-57
2023/03/15 00:04:54;;;;;;;0.10;0.10;;;;;;;16.70;49.58;101029.56;2095433;28;20059;-57
2023/03/15 00:05:57;;;;;;;0.03;0.03;;;;;;;16.70;49.65;101029.56;2095676;28;20079;-57
2023/03/15 00:07:00;;;;;;;0.05;0.05;;;;;;;16.69;49.51;101026.06;2095830;28;20493;-57
2023/03/15 00:08:03;;;;;;;0.05;0.05;;;;;;;16.69;49.60;101033.44;2095866;28;20044;-57
2023/03/15 00:09:05;;;;;;;0.10;0.10;;;;;;;16.65;49.67;101029.91;2092919;28;20528;-57
2023/03/15 00:10:09;;;;;;;0.10;0.10;;;;;;;16.69;49.60;101044.34;2086151;28;20061;-57
2023/03/15 00:11:12;;;;;;;0.10;0.10;;;;;;;16.69;49.64;101038.91;2094641;28;20048;-56
2023/03/15 00:12:14;;;;;;;0.10;0.10;;;;;;;16.68;49.76;101038.09;2099417;28;20139;-56
2023/03/15 00:13:16;;;;;;;0.10;0.10;;;;;;;16.69;49.62;101047.06;2101983;28;20067;-57
2023/03/15 00:14:19;;;;;;;0.03;0.03;;;;;;;16.68;49.71;101042.78;2101935;28;20082;-57
2023/03/15 00:15:21;;;;;;;0.03;0.03;;;;;;;16.69;49.59;101047.88;2103291;28;20121;-57
2023/03/15 00:16:26;;;;;;;0.00;0.00;;;;;;;16.69;49.86;101044.34;2100849;28;20060;-57
2023/03/15 00:17:28;;;;;;;0.10;0.10;;;;;;;16.67;49.78;101038.47;2100947;28;20056;-57
2023/03/15 00:18:32;;;;;;;0.00;0.00;;;;;;;16.69;49.58;101049.81;2102427;28;20052;-57
2023/03/15 00:19:33;;;;;;;0.10;0.10;;;;;;;16.68;49.66;101045.50;2101393;28;20043;-58
2023/03/15 00:20:38;;;;;;;0.03;0.03;;;;;;;16.69;49.50;101057.97;2101523;28;20056;-56
2023/03/15 00:21:42;;;;;;;0.10;0.10;;;;;;;16.67;49.61;101052.09;2098027;28;20052;-56
2023/03/15 00:22:45;;;;;;;0.00;0.00;;;;;;;16.67;49.71;101061.06;2093428;28;20127;-57
2023/03/15 00:23:47;;;;;;;0.10;0.10;;;;;;;16.66;49.48;101053.28;2094622;28;20048;-57
2023/03/15 00:24:50;;;;;;;0.00;0.00;;;;;;;16.67;49.25;101047.44;2100904;28;20057;-56
2023/03/15 00:25:52;;;;;;;0.00;0.00;;;;;;;16.67;49.57;101054.84;2098478;28;20091;-57
2023/03/15 00:26:55;;;;;;;0.00;0.00;;;;;;;16.67;49.55;101060.28;2095646;28;20097;-58
2023/03/15 00:27:57;;;;;;;0.05;0.05;;;;;;;16.66;49.63;101058.72;2100513;28;20048;-55
2023/03/15 00:29:00;;;;;;;0.00;0.00;;;;;;;16.66;49.61;101059.53;2094861;28;20048;-57
2023/03/15 00:30:02;;;;;;;0.10;0.10;;;;;;;16.67;49.53;101063.00;2102572;28;20051;-57
2023/03/15 00:31:09;;;;;;;0.00;0.00;;;;;;;16.66;49.48;101059.53;2095286;28;20056;-57
2023/03/15 00:32:12;;;;;;;0.00;0.00;;;;;;;16.65;49.71;101062.63;2090345;28;20056;-57
2023/03/15 00:33:15;;;;;;;0.10;0.10;;;;;;;16.66;49.62;101067.69;2086995;28;20053;-57
2023/03/15 00:34:22;;;;;;;0.10;0.10;;;;;;;16.66;49.66;101072.38;2092088;28;20076;-57
2023/03/15 00:35:27;;;;;;;0.10;0.10;;;;;;;16.63;49.40;101068.47;2087301;28;20136;-57
2023/03/15 00:36:31;;;;;;;0.43;0.43;;;;;;;16.65;49.33;101070.81;2089735;28;20720;-57
2023/03/15 00:37:34;;;;;;;0.13;0.13;;;;;;;16.65;49.51;101070.81;2090503;28;20064;-57
2023/03/15 00:38:38;;;;;;;0.20;0.20;;;;;;;16.65;49.50;101081.72;2086993;28;20598;-55
2023/03/15 00:39:41;;;;;;;0.10;0.10;;;;;;;16.64;49.49;101071.94;2091717;28;20057;-57
2023/03/15 00:40:43;;;;;;;0.08;0.08;;;;;;;16.64;49.25;101080.13;2087044;28;20543;-57
2023/03/15 00:41:46;;;;;;;0.10;0.10;;;;;;;16.64;49.45;101086.38;2089661;28;20163;-56
2023/03/15 00:42:49;;;;;;;0.10;0.10;;;;;;;16.64;49.41;101086.38;2091509;28;20414;-57
2023/03/15 00:43:52;;;;;;;0.10;0.10;;;;;;;16.64;49.41;101091.03;2089384;28;20048;-57
2023/03/15 00:44:54;;;;;;;0.10;0.10;;;;;;;16.64;49.41;101091.03;2088955;28;20053;-56
2023/03/15 00:45:57;;;;;;;0.10;0.10;;;;;;;16.64;49.71;101096.47;2089971;28;20151;-56
2023/03/15 00:47:00;;;;;;;0.10;0.10;;;;;;;16.64;49.35;101099.22;2093095;28;20052;-56
2023/03/15 00:48:03;;;;;;;0.10;0.10;;;;;;;16.63;49.36;101103.09;2094408;28;20056;-57
2023/03/15 00:49:05;;;;;;;0.10;0.10;;;;;;;16.63;49.48;101103.91;2088336;28;20106;-56
2023/03/15 00:50:08;;;;;;;0.10;0.10;;;;;;;16.63;49.56;101111.28;2092130;28;20052;-57
2023/03/15 00:51:12;;;;;;;0.10;0.10;;;;;;;16.63;49.30;101112.06;2087634;28;20053;-56
2023/03/15 00:52:17;;;;;;;0.10;0.10;;;;;;;16.63;49.50;101116.72;2087984;28;20080;-57
2023/03/15 00:53:21;;;;;;;0.10;0.10;;;;;;;16.62;49.39;101115.19;2078387;28;20462;-56
2023/03/15 00:54:24;;;;;;;0.10;0.10;;;;;;;16.61;49.57;101108.94;2079555;28;20128;-56
2023/03/15 00:55:27;;;;;;;0.10;0.10;;;;;;;16.62;49.39;101115.19;2076959;28;20817;-56
2023/03/15 00:56:29;;;;;;;0.10;0.10;;;;;;;16.63;49.52;101117.53;2078146;28;20049;-56
2023/03/15 00:57:34;;;;;;;0.10;0.10;;;;;;;16.62;49.40;101120.63;2085518;28;20061;-56
2023/03/15 00:58:37;;;;;;;0.10;0.10;;;;;;;16.61;49.48;101124.50;2087284;28;20152;-56
2023/03/15 00:59:38;;;;;;;0.10;0.10;;;;;;;16.62;49.62;101126.09;2088779;28;20080;-56
2023/03/15 01:00:42;;;;;;;0.10;0.10;;;;;;;16.62;49.46;101123.34;2090134;28;20127;-56
2023/03/15 01:01:44;;;;;;;0.00;0.00;;;;;;;16.62;49.48;101131.53;2088132;28;20072;-56
2023/03/15 01:02:48;;;;;;;0.10;0.10;;;;;;;16.61;49.44;101125.28;2085336;28;20159;-56
2023/03/15 01:03:50;;;;;;;0.10;0.10;;;;;;;16.59;49.33;101115.91;2089895;28;20136;-57
2023/03/15 01:04:53;;;;;;;0.17;0.17;;;;;;;16.61;49.35;101130.75;2088534;28;20060;-56
2023/03/15 01:05:55;;;;;;;0.10;0.10;;;;;;;16.61;49.39;101125.28;2089395;28;20552;-56
2023/03/15 01:06:58;;;;;;;0.10;0.10;;;;;;;16.62;49.34;101131.53;2088776;28;20056;-57
2023/03/15 01:08:02;;;;;;;0.10;0.10;;;;;;;16.61;49.41;101125.28;2088305;28;20082;-57
2023/03/15 01:09:05;;;;;;;0.10;0.10;;;;;;;16.60;49.26;101136.56;2088855;28;20053;-56
2023/03/15 01:10:09;;;;;;;0.08;0.08;;;;;;;16.60;49.32;101142.03;2079436;28;20132;-56
2023/03/15 01:11:14;;;;;;;0.10;0.10;;;;;;;16.61;49.42;101138.91;2081500;28;20060;-56
2023/03/15 01:12:16;;;;;;;0.13;0.13;;;;;;;16.59;49.36;101133.06;2086564;28;20099;-56
2023/03/15 01:13:18;;;;;;;0.10;0.10;;;;;;;16.57;49.44;101137.31;2078920;28;20136;-56
2023/03/15 01:14:20;;;;;;;0.05;0.05;;;;;;;16.59;49.45;101137.72;2085484;28;20147;-56
2023/03/15 01:15:23;;;;;;;0.10;0.10;;;;;;;16.59;49.51;101141.22;2095842;28;20417;-57
2023/03/15 01:16:26;;;;;;;0.10;0.10;;;;;;;16.60;49.32;101139.28;2089720;28;20114;-56
2023/03/15 01:17:30;;;;;;;0.10;0.10;;;;;;;16.60;49.32;101142.03;2088494;28;20056;-56
2023/03/15 01:18:32;;;;;;;0.10;0.10;;;;;;;16.59;49.25;101143.16;2088655;28;20141;-56
2023/03/15 01:19:35;;;;;;;0.08;0.08;;;;;;;16.59;49.25;101148.63;2088364;28;20139;-56
2023/03/15 01:20:37;;;;;;;0.00;0.00;;;;;;;16.59;49.29;101152.13;2088316;28;20082;-57
2023/03/15 01:21:40;;;;;;;0.10;0.10;;;;;;;16.58;49.38;101158.75;2088960;28;20048;-56
2023/03/15 01:22:42;;;;;;;0.00;0.00;;;;;;;16.58;48.92;101157.97;2088864;28;20131;-56
2023/03/15 01:23:47;;;;;;;0.10;0.10;;;;;;;16.57;49.25;101151.72;2088580;28;20131;-57
2023/03/15 01:24:49;;;;;;;0.05;0.05;;;;;;;16.58;49.37;101164.19;2088314;28;20410;-57
2023/03/15 01:25:53;;;;;;;0.05;0.05;;;;;;;16.58;49.33;101166.94;2088348;28;20061;-57
2023/03/15 01:26:55;;;;;;;0.10;0.10;;;;;;;16.58;49.22;101171.59;2092737;28;20110;-57
2023/03/15 01:27:58;;;;;;;0.03;0.03;;;;;;;16.58;49.16;101171.59;2079481;28;20049;-57
2023/03/15 01:29:00;;;;;;;0.00;0.00;;;;;;;16.58;49.30;101164.19;2079554;28;20051;-57
2023/03/15 01:30:05;;;;;;;0.10;0.10;;;;;;;16.58;49.42;101174.31;2084308;28;20502;-56
2023/03/15 01:31:15;;;;;;;0.10;0.10;;;;;;;16.56;49.26;101176.63;2079388;28;20450;-56
2023/03/15 01:32:19;;;;;;;0.00;0.00;;;;;;;16.56;49.34;101179.34;2086411;28;20048;-56
2023/03/15 01:33:22;;;;;;;0.10;0.10;;;;;;;16.56;49.33;101184.78;2079051;28;20134;-57
2023/03/15 01:34:25;;;;;;;0.10;0.10;;;;;;;16.57;49.50;101184.44;2078033;28;20584;-56
2023/03/15 01:35:27;;;;;;;0.10;0.10;;;;;;;16.56;49.18;101184.78;2084606;28;20131;-56
2023/03/15 01:36:30;;;;;;;0.10;0.10;;;;;;;16.57;49.23;101189.13;2079812;28;20085;-57
2023/03/15 01:37:33;;;;;;;0.10;0.10;;;;;;;16.57;49.30;101189.13;2090004;28;20073;-56
2023/03/15 01:38:36;;;;;;;0.10;0.10;;;;;;;16.56;48.99;101192.97;2087149;28;20415;-55
2023/03/15 01:39:39;;;;;;;0.10;0.10;;;;;;;16.57;49.29;101198.06;2087312;28;20135;-56
2023/03/15 01:40:45;;;;;;;0.10;0.10;;;;;;;16.57;49.09;101191.84;2094600;28;20060;-56
2023/03/15 01:41:48;;;;;;;0.10;0.10;;;;;;;16.54;48.98;101189.84;2079783;28;20542;-56
2023/03/15 01:42:53;;;;;;;0.10;0.10;;;;;;;16.55;48.97;101186.75;2084400;28;20052;-57
2023/03/15 01:43:55;;;;;;;0.10;0.10;;;;;;;16.55;48.81;101191.41;2088969;28;20115;-56
2023/03/15 01:44:59;;;;;;;0.10;0.10;;;;;;;16.43;49.11;101176.84;2088486;28;20128;-56
2023/03/15 01:46:22;;;;;;;0.10;0.10;;;;;;;16.55;49.67;101191.41;2086476;28;20048;-56
2023/03/15 01:47:28;;;;;;;0.08;0.08;;;;;;;16.51;49.24;101199.53;2075705;28;20057;-57
2023/03/15 01:48:37;;;;;;;0.10;0.10;;;;;;;16.52;49.16;101203.84;2072020;28;20057;-56
2023/03/15 01:49:41;;;;;;;0.05;0.05;;;;;;;16.51;49.32;101199.53;2078690;28;20054;-56
2023/03/15 01:50:43;;;;;;;0.08;0.08;;;;;;;16.52;49.16;101203.84;2082126;28;20056;-56
2023/03/15 01:51:52;;;;;;;0.10;0.10;;;;;;;16.53;49.46;101204.63;2089065;28;20045;-57
2023/03/15 01:52:54;;;;;;;0.10;0.10;;;;;;;16.52;49.13;101194.88;2076472;28;20136;-56
2023/03/15 01:54:01;;;;;;;0.10;0.10;;;;;;;16.52;49.10;101200.34;2068241;28;20699;-56
2023/03/15 01:55:10;;;;;;;0.03;0.03;;;;;;;16.52;49.13;101211.25;2073626;28;20192;-57
2023/03/15 01:56:19;;;;;;;0.10;0.10;;;;;;;16.49;49.36;101210.03;2077782;28;20059;-56
2023/03/15 01:57:25;;;;;;;0.10;0.10;;;;;;;16.50;49.34;101208.88;2073907;28;20899;-56
2023/03/15 01:58:29;;;;;;;0.10;0.10;;;;;;;16.51;49.18;101215.91;2075128;28;20057;-56
2023/03/15 01:59:36;;;;;;;0.10;0.10;;;;;;;16.52;49.09;101219.41;2071788;28;20160;-57
2023/03/15 02:00:39;;;;;;;0.10;0.10;;;;;;;16.50;49.13;101217.06;2077895;28;20807;-57
2023/03/15 02:01:48;;;;;;;0.10;0.10;;;;;;;16.49;49.16;101214.72;2087432;28;20052;-56
2023/03/15 02:02:54;;;;;;;0.10;0.10;;;;;;;16.50;49.17;101221.72;2087929;28;20048;-56
2023/03/15 02:04:07;;;;;;;0.00;0.00;;;;;;;16.48;48.95;101224.03;2083128;28;20132;-55
2023/03/15 02:05:20;;;;;;;0.00;0.00;;;;;;;16.46;49.27;101223.63;2079104;28;20068;-56
2023/03/15 02:06:22;;;;;;;0.10;0.10;;;;;;;16.46;49.25;101221.66;2084890;28;20053;-56
2023/03/15 02:07:33;;;;;;;0.00;0.00;;;;;;;16.48;49.26;101221.31;2092343;28;20049;-56
2023/03/15 02:08:41;;;;;;;0.00;0.00;;;;;;;16.48;49.17;101234.94;2080391;28;20551;-56
2023/03/15 02:09:52;;;;;;;0.00;0.00;;;;;;;16.47;49.07;101233.38;2084097;28;20060;-56
2023/03/15 02:10:57;;;;;;;0.00;0.00;;;;;;;16.46;49.24;101235.31;2078792;28;20123;-56
2023/03/15 02:12:02;;;;;;;0.00;0.00;;;;;;;16.47;49.28;101236.09;2081984;28;20051;-57
2023/03/15 02:13:05;;;;;;;0.00;0.00;;;;;;;16.46;49.32;101238.03;2086119;28;20057;-57
2023/03/15 02:14:10;;;;;;;0.00;0.00;;;;;;;16.39;49.15;101230.50;2087306;28;20049;-57
2023/03/15 02:15:14;;;;;;;0.00;0.00;;;;;;;16.47;49.16;101238.81;2095264;28;20053;-56
2023/03/15 02:16:18;;;;;;;0.00;0.00;;;;;;;16.47;49.25;101242.34;2087246;28;20156;-56
2023/03/15 02:17:32;;;;;;;;;;;;;;;16.21;49.61;101243.13;2085699;28;20486;-56
2023/03/15 02:18:35;;;;;;;0.00;0.00;;;;;;;16.34;49.38;101244.47;2087195;28;19971;-56
2023/03/15 02:19:48;;;;;;;0.00;0.00;;;;;;;16.37;49.18;101251.13;2092293;28;20133;-56
2023/03/15 02:20:59;;;;;;;0.17;0.17;;;;;;;16.41;49.23;101232.91;2087141;28;20048;-55
2023/03/15 02:22:14;;;;;;;0.10;0.10;;;;;;;16.38;49.15;101239.06;2085648;28;20052;-56
2023/03/15 02:23:19;;;;;;;0.00;0.00;;;;;;;16.39;49.28;101235.97;2081249;28;20076;-56
2023/03/15 02:24:35;;;;;;;0.00;0.00;;;;;;;16.38;49.12;101252.69;2085239;28;20091;-56
2023/03/15 02:25:45;;;;;;;0.10;0.10;;;;;;;16.37;49.27;101251.91;2084598;28;20064;-56
2023/03/15 02:26:53;;;;;;;0.03;0.03;;;;;;;16.38;49.15;101256.19;2087600;28;20114;-57
2023/03/15 02:27:58;;;;;;;0.10;0.10;;;;;;;16.40;49.38;101247.66;2092161;28;20390;-57
2023/03/15 02:29:01;;;;;;;0.05;0.05;;;;;;;16.36;49.10;101246.84;2093506;28;20904;-56
2023/03/15 02:30:04;;;;;;;0.10;0.10;;;;;;;16.41;49.17;101252.72;2094587;28;20502;-56
2023/03/15 02:31:07;;;;;;;0.08;0.08;;;;;;;16.41;49.24;101257.41;2090812;28;20052;-57
2023/03/15 02:32:09;;;;;;;0.20;0.20;;;;;;;16.40;49.05;101244.94;2089911;28;20052;-57
2023/03/15 02:33:18;;;;;;;0.03;0.03;;;;;;;16.41;49.18;101247.28;2092892;28;20438;-56
2023/03/15 02:34:24;;;;;;;0.00;0.00;;;;;;;16.41;49.12;101247.28;2088033;28;20471;-56
2023/03/15 02:35:30;;;;;;;0.00;0.00;;;;;;;16.41;49.13;101258.19;2090014;28;20060;-57
2023/03/15 02:36:34;;;;;;;0.00;0.00;;;;;;;16.42;49.10;101253.53;2088241;28;20097;-56
2023/03/15 02:37:37;;;;;;;0.38;0.38;;;;;;;16.41;49.00;101257.41;2090797;28;20311;-56
2023/03/15 02:38:39;;;;;;;0.00;0.00;;;;;;;16.40;49.02;101256.63;2087001;28;20072;-56
2023/03/15 02:39:42;;;;;;;0.10;0.10;;;;;;;16.42;49.14;101256.25;2089353;28;20048;-55
2023/03/15 02:40:46;;;;;;;0.00;0.00;;;;;;;16.41;48.98;101258.19;2092001;28;20052;-56
2023/03/15 02:41:52;;;;;;;0.00;0.00;;;;;;;16.41;49.16;101254.69;2092344;28;20521;-57
2023/03/15 02:42:59;;;;;;;0.00;0.00;;;;;;;16.41;49.00;101258.19;2086434;28;20050;-57
2023/03/15 02:44:06;;;;;;;0.15;0.15;;;;;;;16.41;49.04;101250.00;2095464;28;20428;-57
2023/03/15 02:45:09;;;;;;;0.00;0.00;;;;;;;16.40;49.08;101256.63;2092577;28;20087;-56
2023/03/15 02:46:13;;;;;;;0.00;0.00;;;;;;;16.42;48.81;101265.22;2087586;28;20086;-57
2023/03/15 02:47:19;;;;;;;0.08;0.08;;;;;;;16.41;48.96;101263.63;2094523;28;20409;-56
2023/03/15 02:48:22;;;;;;;0.00;0.00;;;;;;;16.39;49.29;101265.94;2093970;28;20552;-56
2023/03/15 02:49:28;;;;;;;0.00;0.00;;;;;;;16.41;49.30;101271.81;2092436;28;20064;-57
2023/03/15 02:50:32;;;;;;;0.00;0.00;;;;;;;16.41;49.17;101274.53;2086984;28;20063;-56
2023/03/15 02:51:34;;;;;;;0.05;0.05;;;;;;;16.41;49.10;101273.78;2088780;28;20127;-57
2023/03/15 02:52:37;;;;;;;0.10;0.10;;;;;;;16.40;49.00;101272.19;2091446;28;20513;-57
2023/03/15 02:53:39;;;;;;;0.10;0.10;;;;;;;16.39;48.99;101274.13;2087102;28;20118;-56
2023/03/15 02:54:42;;;;;;;0.00;0.00;;;;;;;16.41;49.05;101273.78;2086723;28;20041;-56
2023/03/15 02:55:45;;;;;;;0.00;0.00;;;;;;;16.41;48.90;101282.72;2087701;28;20102;-56
2023/03/15 02:56:47;;;;;;;0.00;0.00;;;;;;;16.41;49.11;101279.22;2088869;28;20045;-57
2023/03/15 02:57:50;;;;;;;0.00;0.00;;;;;;;16.40;49.26;101281.16;2088938;28;20475;-56
2023/03/15 02:58:55;;;;;;;0.00;0.00;;;;;;;16.42;48.92;101278.06;2095265;28;20551;-56
2023/03/15 02:59:58;;;;;;;0.00;0.00;;;;;;;16.40;48.91;101283.09;2094012;28;20049;-56
2023/03/15 03:01:02;;;;;;;0.00;0.00;;;;;;;16.41;48.81;101290.88;2087355;28;20045;-56
2023/03/15 03:02:05;;;;;;;0.03;0.03;;;;;;;16.41;48.86;101290.13;2087950;28;20060;-56
2023/03/15 03:03:10;;;;;;;0.00;0.00;;;;;;;16.41;48.82;101299.06;2085912;28;20183;-56
2023/03/15 03:04:12;;;;;;;0.00;0.00;;;;;;;16.39;49.00;101295.91;2079411;28;20138;-56
2023/03/15 03:05:16;;;;;;;0.00;0.00;;;;;;;16.38;48.91;101290.84;2085680;28;20052;-56
2023/03/15 03:06:18;;;;;;;0.10;0.10;;;;;;;16.40;49.02;101300.22;2094146;28;20053;-57
2023/03/15 03:07:22;;;;;;;0.00;0.00;;;;;;;16.40;48.80;101305.69;2094427;28;20459;-56
2023/03/15 03:08:30;;;;;;;0.10;0.10;;;;;;;16.36;48.83;101299.38;2087414;28;20045;-56
2023/03/15 03:09:33;;;;;;;0.17;0.17;;;;;;;16.38;48.87;101299.81;2090593;28;20049;-56
2023/03/15 03:10:35;;;;;;;0.00;0.00;;;;;;;16.38;48.83;101299.00;2095281;28;20105;-56
2023/03/15 03:11:38;;;;;;;0.00;0.00;;;;;;;16.38;48.96;101305.25;2094380;28;20056;-56
2023/03/15 03:12:41;;;;;;;0.20;0.20;;;;;;;16.38;48.85;101310.72;2086067;28;20045;-56
2023/03/15 03:13:44;;;;;;;0.00;0.00;;;;;;;16.38;48.87;101310.72;2093499;28;20411;-57
2023/03/15 03:14:47;;;;;;;0.00;0.00;;;;;;;16.38;48.97;101307.97;2092926;28;20402;-56
2023/03/15 03:15:57;;;;;;;0.10;0.10;;;;;;;16.37;48.85;101311.88;2094617;28;20044;-56
2023/03/15 03:17:02;;;;;;;0.03;0.03;;;;;;;16.35;48.84;101307.94;2077991;28;20514;-55
2023/03/15 03:18:05;;;;;;;0.00;0.00;;;;;;;16.37;48.93;101311.88;2075371;28;20057;-55
2023/03/15 03:19:07;;;;;;;0.00;0.00;;;;;;;16.37;48.96;101317.31;2087123;28;20048;-56
2023/03/15 03:20:12;;;;;;;0.00;0.00;;;;;;;16.39;48.75;101325.91;2091325;28;20052;-56
2023/03/15 03:21:19;;;;;;;0.00;0.00;;;;;;;16.34;48.99;101323.50;2086165;28;20053;-56
2023/03/15 03:22:23;;;;;;;0.10;0.10;;;;;;;16.37;48.76;101330.16;2088688;28;20140;-55
2023/03/15 03:23:25;;;;;;;0.03;0.03;;;;;;;16.37;48.73;101336.41;2091915;28;20518;-56
2023/03/15 03:24:28;;;;;;;0.08;0.08;;;;;;;16.37;48.76;101341.84;2093830;28;20406;-56
2023/03/15 03:25:31;;;;;;;0.00;0.00;;;;;;;16.37;48.85;101339.13;2087334;28;20052;-56
2023/03/15 03:26:34;;;;;;;0.10;0.10;;;;;;;16.36;48.87;101340.25;2088074;28;20049;-56
2023/03/15 03:27:36;;;;;;;0.08;0.08;;;;;;;16.36;48.81;101340.25;2087576;28;20053;-56
2023/03/15 03:28:40;;;;;;;0.10;0.10;;;;;;;16.37;48.86;101335.59;2086760;28;20147;-55
2023/03/15 03:29:43;;;;;;;0.10;0.10;;;;;;;16.36;48.84;101351.16;2086047;28;20414;-56
2023/03/15 03:30:47;;;;;;;0.00;0.00;;;;;;;16.38;48.65;101350.78;2087121;28;20053;-56
2023/03/15 03:31:50;;;;;;;0.10;0.10;;;;;;;16.36;48.76;101336.75;2079025;28;20400;-56
2023/03/15 03:32:55;;;;;;;0.00;0.00;;;;;;;16.36;48.83;101347.66;2081202;28;20066;-56
2023/03/15 03:33:57;;;;;;;0.08;0.08;;;;;;;16.36;48.78;101353.13;2092283;28;20564;-56
2023/03/15 03:35:01;;;;;;;0.10;0.10;;;;;;;16.34;48.82;101352.69;2089059;28;20045;-56
2023/03/15 03:36:03;;;;;;;0.10;0.10;;;;;;;16.36;48.75;101353.13;2086846;28;20542;-56
2023/03/15 03:37:07;;;;;;;0.00;0.00;;;;;;;16.36;48.64;101353.13;2092401;28;20044;-56
2023/03/15 03:38:25;;;;;;;0.10;0.10;;;;;;;16.33;48.76;101359.31;2088076;28;20140;-57
2023/03/15 03:39:30;;;;;;;0.10;0.10;;;;;;;16.33;48.88;101362.78;2086696;28;20065;-56
2023/03/15 03:40:35;;;;;;;0.10;0.10;;;;;;;16.33;48.69;101353.84;2093841;28;20067;-56
2023/03/15 03:41:39;;;;;;;0.10;0.10;;;;;;;16.34;48.71;101360.88;2093424;28;20559;-56
2023/03/15 03:42:44;;;;;;;0.10;0.10;;;;;;;16.34;48.67;101364.38;2093377;28;20048;-57
2023/03/15 03:43:46;;;;;;;0.10;0.10;;;;;;;16.33;48.70;101370.19;2086035;28;20101;-56
2023/03/15 03:44:50;;;;;;;0.10;0.10;;;;;;;16.34;48.74;101371.75;2078587;28;20372;-55
2023/03/15 03:45:54;;;;;;;0.00;0.00;;;;;;;16.34;48.70;101377.22;2079780;28;20052;-54
2023/03/15 03:46:57;;;;;;;0.10;0.10;;;;;;;16.33;48.90;101376.41;2078705;28;20561;-55
2023/03/15 03:47:59;;;;;;;0.10;0.10;;;;;;;16.34;48.70;101383.47;2093711;28;20056;-56
2023/03/15 03:49:03;;;;;;;0.10;0.10;;;;;;;16.33;48.60;101378.38;2092804;28;20091;-56
2023/03/15 03:50:06;;;;;;;0.10;0.10;;;;;;;16.34;48.71;101371.75;2095079;28;20061;-56
2023/03/15 03:51:10;;;;;;;0.10;0.10;;;;;;;16.32;48.69;101374.84;2091696;28;20520;-56
2023/03/15 03:52:12;;;;;;;0.10;0.10;;;;;;;16.32;48.72;101380.31;2090384;28;20561;-57
2023/03/15 03:53:15;;;;;;;0.10;0.10;;;;;;;16.34;48.57;101377.22;2089871;28;20421;-54
2023/03/15 03:54:19;;;;;;;0.10;0.10;;;;;;;16.34;48.65;101382.66;2093855;28;20053;-57
2023/03/15 03:55:23;;;;;;;0.10;0.10;;;;;;;16.32;48.67;101384.97;2085806;28;20053;-56
2023/03/15 03:56:27;;;;;;;0.13;0.13;;;;;;;16.32;48.77;101383.03;2092256;28;20471;-56
2023/03/15 03:57:32;;;;;;;0.13;0.13;;;;;;;16.32;48.59;101391.22;2090480;28;20045;-60
2023/03/15 03:58:34;;;;;;;0.00;0.00;;;;;;;16.32;48.63;101388.47;2094282;28;20056;-60
2023/03/15 04:00:00;;;;;;;0.00;0.00;;;;;;;16.27;48.75;101388.78;2091859;28;20564;-60
2023/03/15 04:01:06;;;;;;;0.00;0.00;;;;;;;16.30;48.70;101395.44;2094248;28;20603;-60
2023/03/15 04:02:11;;;;;;;0.00;0.00;;;;;;;16.29;48.62;101397.38;2087631;28;20528;-60
2023/03/15 04:03:18;;;;;;;0.10;0.10;;;;;;;16.28;48.66;101400.47;2088720;28;20701;-61
2023/03/15 04:04:25;;;;;;;0.10;0.10;;;;;;;16.28;48.70;101403.97;2088656;28;20628;-60
2023/03/15 04:05:28;;;;;;;0.10;0.10;;;;;;;16.30;48.60;101398.94;2086747;28;20462;-61
2023/03/15 04:06:31;;;;;;;0.10;0.10;;;;;;;16.30;48.66;101406.34;2094012;28;20498;-60
2023/03/15 04:07:33;;;;;;;0.00;0.00;;;;;;;16.30;48.68;101407.13;2092692;28;20570;-60
2023/03/15 04:08:36;;;;;;;0.03;0.03;;;;;;;16.30;48.52;101407.13;2093645;28;20606;-60
2023/03/15 04:09:40;;;;;;;0.10;0.10;;;;;;;16.31;48.51;101407.94;2087033;28;20051;-61
2023/03/15 04:10:43;;;;;;;0.10;0.10;;;;;;;16.30;48.57;101412.56;2086986;28;20045;-60
2023/03/15 04:11:45;;;;;;;0.10;0.10;;;;;;;16.29;48.63;101413.75;2089568;28;20549;-60
2023/03/15 04:12:49;;;;;;;0.00;0.00;;;;;;;16.29;48.66;101411.00;2086165;28;20497;-61
2023/03/15 04:13:52;;;;;;;0.10;0.10;;;;;;;16.29;48.71;101413.75;2087038;28;20053;-60
2023/03/15 04:14:55;;;;;;;0.10;0.10;;;;;;;16.30;48.80;101420.75;2086587;28;20094;-61
2023/03/15 04:16:02;;;;;;;0.10;0.10;;;;;;;16.29;48.75;101421.91;2087060;28;20183;-60
2023/03/15 04:17:12;;;;;;;0.10;0.10;;;;;;;16.28;48.55;101431.22;2085723;28;20053;-60
2023/03/15 04:18:16;;;;;;;0.10;0.10;;;;;;;16.28;48.51;101431.22;2084660;28;20057;-61
2023/03/15 04:19:20;;;;;;;0.10;0.10;;;;;;;16.28;48.71;101433.94;2083059;28;20407;-60
2023/03/15 04:20:25;;;;;;;0.00;0.00;;;;;;;16.29;48.60;101435.53;2087067;28;20063;-61
2023/03/15 04:21:30;;;;;;;0.10;0.10;;;;;;;16.28;48.42;101433.94;2088600;28;20124;-60
2023/03/15 04:22:48;;;;;;;0.10;0.10;;;;;;;16.26;48.56;101430.03;2094175;28;20580;-60
2023/03/15 04:24:01;;;;;;;0.10;0.10;;;;;;;16.24;48.71;101440.50;2095086;28;20874;-60
2023/03/15 04:25:20;;;;;;;0.05;0.05;;;;;;;16.23;48.65;101433.47;2093888;28;20052;-60
2023/03/15 04:26:30;;;;;;;0.10;0.10;;;;;;;16.24;48.72;101437.78;2090076;28;20098;-60
2023/03/15 04:28:03;;;;;;;0.10;0.10;;;;;;;16.20;48.54;101443.19;2076528;28;20474;-60
2023/03/15 04:29:23;;;;;;;0.05;0.05;;;;;;;16.20;48.65;101442.38;2090659;28;20044;-60
2023/03/15 04:30:35;;;;;;;0.10;0.10;;;;;;;16.20;48.88;101437.72;2092010;28;20060;-61
2023/03/15 04:31:46;;;;;;;0.08;0.08;;;;;;;16.20;48.68;101451.34;2093647;28;20052;-60
2023/03/15 04:33:03;;;;;;;0.05;0.05;;;;;;;16.21;48.69;101450.19;2096147;28;20506;-61
2023/03/15 04:34:18;;;;;;;0.00;0.00;;;;;;;16.19;48.79;101452.50;2092462;28;20055;-60
2023/03/15 04:35:33;;;;;;;0.10;0.10;;;;;;;16.20;48.74;101456.81;2090617;28;20045;-60
2023/03/15 04:36:43;;;;;;;0.10;0.10;;;;;;;16.18;48.68;101456.38;2095905;28;20090;-61
2023/03/15 04:38:02;;;;;;;0.05;0.05;;;;;;;16.16;48.76;101450.50;2090299;28;20055;-60
2023/03/15 04:39:20;;;;;;;0.10;0.10;;;;;;;16.15;48.68;101451.66;2089571;28;20053;-60
2023/03/15 04:40:33;;;;;;;0.10;0.10;;;;;;;16.16;48.77;101450.50;2086985;28;20092;-60
2023/03/15 04:41:53;;;;;;;0.10;0.10;;;;;;;16.13;48.70;101448.50;2096068;28;20131;-60
2023/03/15 04:43:15;;;;;;;0.10;0.10;;;;;;;16.13;48.60;101447.69;2088892;28;20457;-60
2023/03/15 04:44:29;;;;;;;0.10;0.10;;;;;;;16.14;48.81;101447.34;2082360;28;20818;-60
2023/03/15 04:45:44;;;;;;;0.10;0.10;;;;;;;16.14;48.85;101450.06;2092437;28;20426;-61
2023/03/15 04:46:59;;;;;;;0.10;0.10;;;;;;;16.12;48.60;101443.41;2095032;28;20052;-61
2023/03/15 04:48:32;;;;;;;0.05;0.05;;;;;;;16.12;48.72;101448.84;2084632;28;20110;-61
2023/03/15 04:50:01;;;;;;;0.10;0.10;;;;;;;16.09;48.86;101458.53;2089080;28;20040;-61
2023/03/15 04:51:13;;;;;;;0.10;0.10;;;;;;;16.10;48.80;101454.66;2089048;28;20625;-61
2023/03/15 04:52:27;;;;;;;0.10;0.10;;;;;;;16.11;48.79;101467.13;2092386;28;20608;-60
2023/03/15 04:53:51;;;;;;;0.10;0.10;;;;;;;16.10;48.96;101464.78;2090808;28;20053;-61
2023/03/15 04:55:13;;;;;;;;;;;;;;;15.89;49.35;101458.94;2096991;28;20048;-60
2023/03/15 04:56:42;;;;;;;0.10;0.10;;;;;;;15.99;48.85;101453.69;2065410;28;20008;-60
2023/03/15 04:57:57;;;;;;;0.10;0.10;;;;;;;16.03;48.81;101462.69;2090209;28;20634;-60
2023/03/15 04:59:18;;;;;;;0.10;0.10;;;;;;;16.04;48.93;101460.78;2092644;28;20087;-61
2023/03/15 05:00:47;;;;;;;0.10;0.10;;;;;;;16.02;49.18;101463.88;2078836;28;20046;-61
2023/03/15 05:02:20;;;;;;;0.10;0.10;;;;;;;16.02;48.92;101463.06;2091220;28;20111;-60
2023/03/15 05:03:45;;;;;;;0.10;0.10;;;;;;;16.03;48.65;101459.22;2090932;28;20143;-60
2023/03/15 05:05:06;;;;;;;0.10;0.10;;;;;;;16.02;49.02;101466.59;2090846;28;20491;-60
2023/03/15 05:06:18;;;;;;;0.08;0.08;;;;;;;16.04;48.92;101467.03;2088751;28;20248;-61
2023/03/15 05:07:40;;;;;;;0.00;0.00;;;;;;;16.03;48.92;101470.88;2087830;28;20044;-60
2023/03/15 05:08:56;;;;;;;0.10;0.10;;;;;;;16.03;48.85;101470.88;2091312;28;20049;-60